sensor_id;sensor_type;location;lat;lon;timestamp;P1;durP1;ratioP1;P2;durP2;ratioP2
38901;SDS011;24661;53.566;9.910;2023-02-15T00:01:31;263.23;;;45.37;;
38901;SDS011;24661;53.566;9.910;2023-02-15T00:03:57;156.67;;;39.87;;
38901;SDS011;24661;53.566;9.910;2023-02-15T00:06:22;102.93;;;32.37;;
38901;SDS011;24661;53.566;9.910;2023-02-15T00:08:48;160.00;;;38.67;;
38901;SDS011;24661;53.566;9.910;2023-02-15T00:11:15;101.57;;;34.20;;
38901;SDS011;24661;53.566;9.910;2023-02-15T00:14:04;88.80;;;36.33;;
38901;SDS011;24661;53.566;9.910;2023-02-15T00:16:34;126.37;;;40.17;;
38901;SDS011;24661;53.566;9.910;2023-02-15T00:19:00;94.00;;;32.47;;
38901;SDS011;24661;53.566;9.910;2023-02-15T00:21:27;166.63;;;38.47;;
38901;SDS011;24661;53.566;9.910;2023-02-15T00:23:54;163.20;;;39.93;;
38901;SDS011;24661;53.566;9.910;2023-02-15T00:26:21;164.07;;;38.00;;
38901;SDS011;24661;53.566;9.910;2023-02-15T00:28:47;219.77;;;42.00;;
38901;SDS011;24661;53.566;9.910;2023-02-15T00:31:13;236.37;;;47.47;;
38901;SDS011;24661;53.566;9.910;2023-02-15T00:33:38;129.73;;;37.40;;
38901;SDS011;24661;53.566;9.910;2023-02-15T00:36:05;141.13;;;37.10;;
38901;SDS011;24661;53.566;9.910;2023-02-15T00:38:34;199.30;;;39.37;;
38901;SDS011;24661;53.566;9.910;2023-02-15T00:41:01;355.23;;;57.97;;
38901;SDS011;24661;53.566;9.910;2023-02-15T00:43:28;216.87;;;44.77;;
38901;SDS011;24661;53.566;9.910;2023-02-15T00:45:55;164.17;;;41.40;;
38901;SDS011;24661;53.566;9.910;2023-02-15T00:48:21;111.70;;;38.20;;
38901;SDS011;24661;53.566;9.910;2023-02-15T00:50:54;160.00;;;41.67;;
38901;SDS011;24661;53.566;9.910;2023-02-15T00:53:22;233.47;;;44.30;;
38901;SDS011;24661;53.566;9.910;2023-02-15T00:55:48;225.27;;;45.00;;
38901;SDS011;24661;53.566;9.910;2023-02-15T00:58:14;92.83;;;34.13;;
38901;SDS011;24661;53.566;9.910;2023-02-15T01:00:40;292.53;;;49.50;;
38901;SDS011;24661;53.566;9.910;2023-02-15T01:03:09;113.37;;;35.70;;
38901;SDS011;24661;53.566;9.910;2023-02-15T01:05:36;237.80;;;44.47;;
38901;SDS011;24661;53.566;9.910;2023-02-15T01:08:02;169.30;;;38.47;;
38901;SDS011;24661;53.566;9.910;2023-02-15T01:10:27;178.93;;;40.80;;
38901;SDS011;24661;53.566;9.910;2023-02-15T01:12:54;142.27;;;35.93;;
38901;SDS011;24661;53.566;9.910;2023-02-15T01:15:20;166.97;;;38.63;;
38901;SDS011;24661;53.566;9.910;2023-02-15T01:17:46;101.40;;;35.93;;
38901;SDS011;24661;53.566;9.910;2023-02-15T01:20:23;106.83;;;38.17;;
38901;SDS011;24661;53.566;9.910;2023-02-15T01:22:51;287.23;;;51.53;;
38901;SDS011;24661;53.566;9.910;2023-02-15T01:25:17;175.93;;;41.03;;
38901;SDS011;24661;53.566;9.910;2023-02-15T01:27:44;77.90;;;31.63;;
38901;SDS011;24661;53.566;9.910;2023-02-15T01:30:10;141.57;;;40.53;;
38901;SDS011;24661;53.566;9.910;2023-02-15T01:32:36;226.83;;;44.60;;
38901;SDS011;24661;53.566;9.910;2023-02-15T01:35:02;330.03;;;51.60;;
38901;SDS011;24661;53.566;9.910;2023-02-15T01:37:29;236.97;;;45.77;;
38901;SDS011;24661;53.566;9.910;2023-02-15T01:39:56;141.33;;;38.70;;
38901;SDS011;24661;53.566;9.910;2023-02-15T01:42:22;285.30;;;47.90;;
38901;SDS011;24661;53.566;9.910;2023-02-15T01:45:06;166.27;;;38.13;;
38901;SDS011;24661;53.566;9.910;2023-02-15T01:48:00;298.30;;;46.13;;
38901;SDS011;24661;53.566;9.910;2023-02-15T01:50:33;235.23;;;42.17;;
38901;SDS011;24661;53.566;9.910;2023-02-15T01:55:37;285.90;;;45.77;;
38901;SDS011;24661;53.566;9.910;2023-02-15T01:58:06;338.50;;;52.00;;
38901;SDS011;24661;53.566;9.910;2023-02-15T02:00:32;354.00;;;53.77;;
38901;SDS011;24661;53.566;9.910;2023-02-15T02:02:59;295.10;;;48.97;;
38901;SDS011;24661;53.566;9.910;2023-02-15T02:05:26;267.57;;;47.70;;
38901;SDS011;24661;53.566;9.910;2023-02-15T02:07:52;267.63;;;45.93;;
38901;SDS011;24661;53.566;9.910;2023-02-15T02:10:21;181.33;;;39.33;;
38901;SDS011;24661;53.566;9.910;2023-02-15T02:12:48;116.00;;;38.13;;
38901;SDS011;24661;53.566;9.910;2023-02-15T02:15:18;361.50;;;55.40;;
38901;SDS011;24661;53.566;9.910;2023-02-15T02:26:52;266.47;;;45.27;;
38901;SDS011;24661;53.566;9.910;2023-02-15T02:29:36;205.63;;;40.70;;
38901;SDS011;24661;53.566;9.910;2023-02-15T02:42:59;295.60;;;47.90;;
38901;SDS011;24661;53.566;9.910;2023-02-15T02:45:41;235.33;;;46.50;;
38901;SDS011;24661;53.566;9.910;2023-02-15T02:48:15;109.60;;;34.50;;
38901;SDS011;24661;53.566;9.910;2023-02-15T02:50:50;267.77;;;47.83;;
38901;SDS011;24661;53.566;9.910;2023-02-15T02:53:16;255.00;;;45.67;;
38901;SDS011;24661;53.566;9.910;2023-02-15T02:58:17;114.57;;;36.47;;
38901;SDS011;24661;53.566;9.910;2023-02-15T03:03:30;175.47;;;40.70;;
38901;SDS011;24661;53.566;9.910;2023-02-15T03:06:03;110.90;;;34.83;;
38901;SDS011;24661;53.566;9.910;2023-02-15T03:08:44;262.80;;;48.73;;
38901;SDS011;24661;53.566;9.910;2023-02-15T03:11:14;202.83;;;42.17;;
38901;SDS011;24661;53.566;9.910;2023-02-15T03:13:40;273.20;;;43.00;;
38901;SDS011;24661;53.566;9.910;2023-02-15T03:16:07;152.27;;;36.53;;
38901;SDS011;24661;53.566;9.910;2023-02-15T03:19:04;113.43;;;35.10;;
38901;SDS011;24661;53.566;9.910;2023-02-15T03:21:51;164.17;;;37.07;;
38901;SDS011;24661;53.566;9.910;2023-02-15T03:24:42;213.03;;;41.30;;
38901;SDS011;24661;53.566;9.910;2023-02-15T03:27:13;135.20;;;36.33;;
38901;SDS011;24661;53.566;9.910;2023-02-15T03:29:43;308.50;;;48.80;;
38901;SDS011;24661;53.566;9.910;2023-02-15T03:32:13;224.87;;;42.97;;
38901;SDS011;24661;53.566;9.910;2023-02-15T03:34:40;138.33;;;36.93;;
38901;SDS011;24661;53.566;9.910;2023-02-15T03:42:31;141.33;;;37.57;;
38901;SDS011;24661;53.566;9.910;2023-02-15T03:45:05;142.50;;;40.23;;
38901;SDS011;24661;53.566;9.910;2023-02-15T03:47:37;123.87;;;39.53;;
38901;SDS011;24661;53.566;9.910;2023-02-15T03:50:08;125.50;;;35.90;;
38901;SDS011;24661;53.566;9.910;2023-02-15T03:53:06;196.33;;;40.40;;
38901;SDS011;24661;53.566;9.910;2023-02-15T03:55:35;155.43;;;37.40;;
38901;SDS011;24661;53.566;9.910;2023-02-15T03:58:01;88.33;;;30.67;;
38901;SDS011;24661;53.566;9.910;2023-02-15T04:00:53;101.90;;;33.50;;
38901;SDS011;24661;53.566;9.910;2023-02-15T04:04:04;102.87;;;32.93;;
38901;SDS011;24661;53.566;9.910;2023-02-15T04:06:36;156.43;;;35.63;;
38901;SDS011;24661;53.566;9.910;2023-02-15T04:09:02;155.40;;;36.97;;
38901;SDS011;24661;53.566;9.910;2023-02-15T04:11:46;110.63;;;33.10;;
38901;SDS011;24661;53.566;9.910;2023-02-15T04:14:12;220.33;;;43.70;;
38901;SDS011;24661;53.566;9.910;2023-02-15T04:16:56;175.27;;;38.03;;
38901;SDS011;24661;53.566;9.910;2023-02-15T04:19:22;199.93;;;42.83;;
38901;SDS011;24661;53.566;9.910;2023-02-15T04:22:06;117.93;;;36.27;;
38901;SDS011;24661;53.566;9.910;2023-02-15T04:24:50;124.13;;;35.53;;
38901;SDS011;24661;53.566;9.910;2023-02-15T04:27:34;208.40;;;39.90;;
38901;SDS011;24661;53.566;9.910;2023-02-15T04:30:00;166.43;;;37.20;;
38901;SDS011;24661;53.566;9.910;2023-02-15T04:32:26;83.00;;;31.73;;
38901;SDS011;24661;53.566;9.910;2023-02-15T04:34:52;207.97;;;40.23;;
38901;SDS011;24661;53.566;9.910;2023-02-15T04:37:18;154.63;;;34.63;;
38901;SDS011;24661;53.566;9.910;2023-02-15T04:39:43;165.10;;;43.07;;
38901;SDS011;24661;53.566;9.910;2023-02-15T04:42:09;140.73;;;37.70;;
38901;SDS011;24661;53.566;9.910;2023-02-15T04:44:34;166.63;;;39.30;;
38901;SDS011;24661;53.566;9.910;2023-02-15T04:47:00;136.23;;;36.23;;
38901;SDS011;24661;53.566;9.910;2023-02-15T04:49:25;197.43;;;40.87;;
38901;SDS011;24661;53.566;9.910;2023-02-15T04:51:51;224.93;;;42.57;;
38901;SDS011;24661;53.566;9.910;2023-02-15T04:54:16;328.83;;;51.13;;
38901;SDS011;24661;53.566;9.910;2023-02-15T04:56:42;140.33;;;35.07;;
38901;SDS011;24661;53.566;9.910;2023-02-15T04:59:11;141.73;;;37.10;;
38901;SDS011;24661;53.566;9.910;2023-02-15T05:01:37;334.53;;;48.00;;
38901;SDS011;24661;53.566;9.910;2023-02-15T05:04:03;132.93;;;34.07;;
38901;SDS011;24661;53.566;9.910;2023-02-15T05:06:29;345.67;;;51.60;;
38901;SDS011;24661;53.566;9.910;2023-02-15T05:08:54;335.40;;;48.50;;
38901;SDS011;24661;53.566;9.910;2023-02-15T05:11:20;100.73;;;33.17;;
38901;SDS011;24661;53.566;9.910;2023-02-15T05:13:46;245.33;;;43.53;;
38901;SDS011;24661;53.566;9.910;2023-02-15T05:16:11;139.63;;;35.77;;
38901;SDS011;24661;53.566;9.910;2023-02-15T05:18:37;376.30;;;48.53;;
38901;SDS011;24661;53.566;9.910;2023-02-15T05:21:02;209.73;;;38.23;;
38901;SDS011;24661;53.566;9.910;2023-02-15T05:23:28;320.80;;;47.93;;
38901;SDS011;24661;53.566;9.910;2023-02-15T05:25:54;197.03;;;37.20;;
38901;SDS011;24661;53.566;9.910;2023-02-15T05:28:38;100.77;;;32.90;;
38901;SDS011;24661;53.566;9.910;2023-02-15T05:33:31;203.63;;;38.17;;
38901;SDS011;24661;53.566;9.910;2023-02-15T05:35:57;322.10;;;49.47;;
38901;SDS011;24661;53.566;9.910;2023-02-15T05:38:23;167.00;;;37.60;;
38901;SDS011;24661;53.566;9.910;2023-02-15T05:40:51;129.57;;;34.40;;
38901;SDS011;24661;53.566;9.910;2023-02-15T05:43:17;228.73;;;42.13;;
38901;SDS011;24661;53.566;9.910;2023-02-15T05:45:47;102.10;;;36.37;;
38901;SDS011;24661;53.566;9.910;2023-02-15T05:48:14;124.17;;;36.80;;
38901;SDS011;24661;53.566;9.910;2023-02-15T05:50:40;342.07;;;49.27;;
38901;SDS011;24661;53.566;9.910;2023-02-15T05:53:06;217.80;;;40.77;;
38901;SDS011;24661;53.566;9.910;2023-02-15T05:55:31;186.53;;;36.50;;
38901;SDS011;24661;53.566;9.910;2023-02-15T05:57:57;259.20;;;42.57;;
38901;SDS011;24661;53.566;9.910;2023-02-15T06:00:22;312.57;;;45.97;;
38901;SDS011;24661;53.566;9.910;2023-02-15T06:02:48;219.37;;;38.60;;
38901;SDS011;24661;53.566;9.910;2023-02-15T06:05:13;148.87;;;35.10;;
38901;SDS011;24661;53.566;9.910;2023-02-15T06:07:42;236.07;;;40.23;;
38901;SDS011;24661;53.566;9.910;2023-02-15T06:10:09;99.33;;;29.67;;
38901;SDS011;24661;53.566;9.910;2023-02-15T06:12:35;258.30;;;40.70;;
38901;SDS011;24661;53.566;9.910;2023-02-15T06:15:00;151.33;;;32.57;;
38901;SDS011;24661;53.566;9.910;2023-02-15T06:17:26;120.90;;;29.93;;
38901;SDS011;24661;53.566;9.910;2023-02-15T06:19:51;152.57;;;32.63;;
38901;SDS011;24661;53.566;9.910;2023-02-15T06:22:17;160.90;;;33.60;;
38901;SDS011;24661;53.566;9.910;2023-02-15T06:24:43;184.80;;;34.43;;
38901;SDS011;24661;53.566;9.910;2023-02-15T06:27:09;273.77;;;39.10;;
38901;SDS011;24661;53.566;9.910;2023-02-15T06:29:35;455.73;;;57.00;;
38901;SDS011;24661;53.566;9.910;2023-02-15T06:32:00;203.10;;;36.13;;
38901;SDS011;24661;53.566;9.910;2023-02-15T06:34:26;73.70;;;28.77;;
38901;SDS011;24661;53.566;9.910;2023-02-15T06:36:51;151.07;;;32.27;;
38901;SDS011;24661;53.566;9.910;2023-02-15T06:39:17;167.20;;;33.83;;
38901;SDS011;24661;53.566;9.910;2023-02-15T06:41:42;222.93;;;33.67;;
38901;SDS011;24661;53.566;9.910;2023-02-15T06:44:08;162.83;;;32.00;;
38901;SDS011;24661;53.566;9.910;2023-02-15T06:46:34;207.87;;;35.80;;
38901;SDS011;24661;53.566;9.910;2023-02-15T06:48:59;253.57;;;39.07;;
38901;SDS011;24661;53.566;9.910;2023-02-15T06:51:25;212.17;;;36.37;;
38901;SDS011;24661;53.566;9.910;2023-02-15T06:53:51;98.37;;;31.27;;
38901;SDS011;24661;53.566;9.910;2023-02-15T06:56:16;281.77;;;43.47;;
38901;SDS011;24661;53.566;9.910;2023-02-15T06:58:42;99.53;;;27.83;;
38901;SDS011;24661;53.566;9.910;2023-02-15T07:01:08;222.43;;;37.53;;
38901;SDS011;24661;53.566;9.910;2023-02-15T07:03:34;118.13;;;31.03;;
38901;SDS011;24661;53.566;9.910;2023-02-15T07:06:02;100.70;;;28.57;;
38901;SDS011;24661;53.566;9.910;2023-02-15T07:08:31;107.80;;;29.73;;
38901;SDS011;24661;53.566;9.910;2023-02-15T07:10:56;192.23;;;34.83;;
38901;SDS011;24661;53.566;9.910;2023-02-15T07:13:45;67.60;;;26.60;;
38901;SDS011;24661;53.566;9.910;2023-02-15T07:16:11;99.43;;;29.37;;
38901;SDS011;24661;53.566;9.910;2023-02-15T07:18:37;243.00;;;37.40;;
38901;SDS011;24661;53.566;9.910;2023-02-15T07:21:04;130.47;;;31.00;;
38901;SDS011;24661;53.566;9.910;2023-02-15T07:23:32;215.83;;;39.47;;
38901;SDS011;24661;53.566;9.910;2023-02-15T07:26:02;125.80;;;31.07;;
38901;SDS011;24661;53.566;9.910;2023-02-15T07:28:28;80.83;;;28.90;;
38901;SDS011;24661;53.566;9.910;2023-02-15T07:30:54;82.67;;;29.13;;
38901;SDS011;24661;53.566;9.910;2023-02-15T07:33:19;82.00;;;29.77;;
38901;SDS011;24661;53.566;9.910;2023-02-15T07:35:52;87.33;;;30.37;;
38901;SDS011;24661;53.566;9.910;2023-02-15T07:38:19;154.07;;;34.33;;
38901;SDS011;24661;53.566;9.910;2023-02-15T07:40:45;182.87;;;36.63;;
38901;SDS011;24661;53.566;9.910;2023-02-15T07:43:11;355.97;;;52.80;;
38901;SDS011;24661;53.566;9.910;2023-02-15T07:45:37;198.57;;;40.93;;
38901;SDS011;24661;53.566;9.910;2023-02-15T07:48:04;170.10;;;39.83;;
38901;SDS011;24661;53.566;9.910;2023-02-15T07:50:30;116.53;;;35.03;;
38901;SDS011;24661;53.566;9.910;2023-02-15T07:52:56;191.77;;;39.00;;
38901;SDS011;24661;53.566;9.910;2023-02-15T07:55:22;73.97;;;28.73;;
38901;SDS011;24661;53.566;9.910;2023-02-15T07:57:48;179.70;;;37.13;;
38901;SDS011;24661;53.566;9.910;2023-02-15T08:00:15;226.23;;;41.73;;
38901;SDS011;24661;53.566;9.910;2023-02-15T08:02:50;230.17;;;41.23;;
38901;SDS011;24661;53.566;9.910;2023-02-15T08:05:36;138.17;;;31.60;;
38901;SDS011;24661;53.566;9.910;2023-02-15T08:08:02;235.53;;;41.83;;
38901;SDS011;24661;53.566;9.910;2023-02-15T08:10:28;91.67;;;31.60;;
38901;SDS011;24661;53.566;9.910;2023-02-15T08:13:13;107.90;;;35.43;;
38901;SDS011;24661;53.566;9.910;2023-02-15T08:15:38;83.00;;;31.37;;
38901;SDS011;24661;53.566;9.910;2023-02-15T08:18:04;75.83;;;31.10;;
38901;SDS011;24661;53.566;9.910;2023-02-15T08:20:29;117.73;;;33.13;;
38901;SDS011;24661;53.566;9.910;2023-02-15T08:22:55;66.03;;;29.33;;
38901;SDS011;24661;53.566;9.910;2023-02-15T08:25:21;98.53;;;31.27;;
38901;SDS011;24661;53.566;9.910;2023-02-15T08:27:46;79.90;;;31.77;;
38901;SDS011;24661;53.566;9.910;2023-02-15T08:30:12;81.60;;;30.70;;
38901;SDS011;24661;53.566;9.910;2023-02-15T08:32:39;104.13;;;31.30;;
38901;SDS011;24661;53.566;9.910;2023-02-15T08:35:04;125.37;;;32.83;;
38901;SDS011;24661;53.566;9.910;2023-02-15T08:37:30;69.90;;;29.70;;
38901;SDS011;24661;53.566;9.910;2023-02-15T08:39:56;96.90;;;31.67;;
38901;SDS011;24661;53.566;9.910;2023-02-15T08:42:21;79.50;;;29.93;;
38901;SDS011;24661;53.566;9.910;2023-02-15T08:44:47;67.90;;;29.33;;
38901;SDS011;24661;53.566;9.910;2023-02-15T08:47:15;80.40;;;30.03;;
38901;SDS011;24661;53.566;9.910;2023-02-15T08:49:40;118.93;;;31.97;;
38901;SDS011;24661;53.566;9.910;2023-02-15T08:52:06;68.87;;;26.90;;
38901;SDS011;24661;53.566;9.910;2023-02-15T08:54:32;81.07;;;27.77;;
38901;SDS011;24661;53.566;9.910;2023-02-15T08:56:58;71.53;;;28.90;;
38901;SDS011;24661;53.566;9.910;2023-02-15T08:59:24;63.47;;;26.80;;
38901;SDS011;24661;53.566;9.910;2023-02-15T09:01:51;70.43;;;26.43;;
38901;SDS011;24661;53.566;9.910;2023-02-15T09:04:18;70.43;;;28.10;;
38901;SDS011;24661;53.566;9.910;2023-02-15T09:06:45;105.60;;;31.40;;
38901;SDS011;24661;53.566;9.910;2023-02-15T09:09:12;58.60;;;26.93;;
38901;SDS011;24661;53.566;9.910;2023-02-15T09:11:39;94.10;;;31.03;;
38901;SDS011;24661;53.566;9.910;2023-02-15T09:14:08;62.67;;;27.93;;
38901;SDS011;24661;53.566;9.910;2023-02-15T09:16:41;60.70;;;29.03;;
38901;SDS011;24661;53.566;9.910;2023-02-15T09:19:13;61.47;;;27.87;;
38901;SDS011;24661;53.566;9.910;2023-02-15T09:21:40;58.93;;;26.43;;
38901;SDS011;24661;53.566;9.910;2023-02-15T09:24:07;47.63;;;25.90;;
38901;SDS011;24661;53.566;9.910;2023-02-15T09:26:35;55.23;;;26.90;;
38901;SDS011;24661;53.566;9.910;2023-02-15T09:29:02;59.50;;;26.60;;
38901;SDS011;24661;53.566;9.910;2023-02-15T09:31:32;68.27;;;28.63;;
38901;SDS011;24661;53.566;9.910;2023-02-15T09:34:02;68.03;;;27.10;;
38901;SDS011;24661;53.566;9.910;2023-02-15T09:36:32;77.03;;;30.00;;
38901;SDS011;24661;53.566;9.910;2023-02-15T09:56:21;58.63;;;27.27;;
38901;SDS011;24661;53.566;9.910;2023-02-15T09:58:54;68.10;;;29.50;;
38901;SDS011;24661;53.566;9.910;2023-02-15T10:29:31;50.17;;;27.23;;
38901;SDS011;24661;53.566;9.910;2023-02-15T10:37:45;54.70;;;28.43;;
38901;SDS011;24661;53.566;9.910;2023-02-15T10:40:25;51.73;;;28.77;;
38901;SDS011;24661;53.566;9.910;2023-02-15T10:43:22;58.07;;;30.37;;
38901;SDS011;24661;53.566;9.910;2023-02-15T10:45:51;59.73;;;30.63;;
38901;SDS011;24661;53.566;9.910;2023-02-15T10:49:15;62.00;;;30.23;;
38901;SDS011;24661;53.566;9.910;2023-02-15T10:52:25;62.60;;;32.07;;
38901;SDS011;24661;53.566;9.910;2023-02-15T10:54:57;60.77;;;31.23;;
38901;SDS011;24661;53.566;9.910;2023-02-15T11:00:23;61.77;;;30.17;;
38901;SDS011;24661;53.566;9.910;2023-02-15T11:03:26;53.37;;;30.33;;
38901;SDS011;24661;53.566;9.910;2023-02-15T11:08:39;58.63;;;32.57;;
38901;SDS011;24661;53.566;9.910;2023-02-15T11:11:10;57.17;;;28.87;;
38901;SDS011;24661;53.566;9.910;2023-02-15T11:13:46;51.50;;;30.77;;
38901;SDS011;24661;53.566;9.910;2023-02-15T11:16:17;48.80;;;28.33;;
38901;SDS011;24661;53.566;9.910;2023-02-15T11:18:48;53.37;;;29.50;;
38901;SDS011;24661;53.566;9.910;2023-02-15T11:21:27;51.20;;;28.23;;
38901;SDS011;24661;53.566;9.910;2023-02-15T11:26:44;53.33;;;31.17;;
38901;SDS011;24661;53.566;9.910;2023-02-15T11:31:59;55.73;;;29.33;;
38901;SDS011;24661;53.566;9.910;2023-02-15T11:34:49;39.63;;;24.53;;
38901;SDS011;24661;53.566;9.910;2023-02-15T11:37:24;48.03;;;28.27;;
38901;SDS011;24661;53.566;9.910;2023-02-15T11:39:56;54.97;;;30.83;;
38901;SDS011;24661;53.566;9.910;2023-02-15T11:42:22;55.00;;;30.30;;
38901;SDS011;24661;53.566;9.910;2023-02-15T11:47:22;60.93;;;33.73;;
38901;SDS011;24661;53.566;9.910;2023-02-15T11:49:47;54.03;;;29.40;;
38901;SDS011;24661;53.566;9.910;2023-02-15T11:52:14;54.03;;;31.80;;
38901;SDS011;24661;53.566;9.910;2023-02-15T11:54:41;57.97;;;32.40;;
38901;SDS011;24661;53.566;9.910;2023-02-15T12:00:23;56.97;;;31.50;;
38901;SDS011;24661;53.566;9.910;2023-02-15T12:03:02;59.77;;;33.40;;
38901;SDS011;24661;53.566;9.910;2023-02-15T12:05:34;55.93;;;32.73;;
38901;SDS011;24661;53.566;9.910;2023-02-15T12:08:21;56.77;;;30.93;;
38901;SDS011;24661;53.566;9.910;2023-02-15T12:13:32;59.73;;;32.70;;
38901;SDS011;24661;53.566;9.910;2023-02-15T12:15:58;60.30;;;31.23;;
38901;SDS011;24661;53.566;9.910;2023-02-15T12:18:39;44.73;;;27.93;;
38901;SDS011;24661;53.566;9.910;2023-02-15T12:21:14;43.93;;;26.83;;
38901;SDS011;24661;53.566;9.910;2023-02-15T12:24:23;46.33;;;28.17;;
38901;SDS011;24661;53.566;9.910;2023-02-15T12:26:41;48.40;;;27.37;;
38901;SDS011;24661;53.566;9.910;2023-02-15T12:29:16;39.63;;;24.10;;
38901;SDS011;24661;53.566;9.910;2023-02-15T12:31:46;44.67;;;27.00;;
38901;SDS011;24661;53.566;9.910;2023-02-15T12:34:22;49.80;;;28.40;;
38901;SDS011;24661;53.566;9.910;2023-02-15T12:36:57;44.43;;;27.93;;
38901;SDS011;24661;53.566;9.910;2023-02-15T12:41:58;43.97;;;26.03;;
38901;SDS011;24661;53.566;9.910;2023-02-15T12:44:27;44.30;;;28.07;;
38901;SDS011;24661;53.566;9.910;2023-02-15T12:47:05;45.47;;;26.73;;
38901;SDS011;24661;53.566;9.910;2023-02-15T12:49:42;38.83;;;26.23;;
38901;SDS011;24661;53.566;9.910;2023-02-15T12:54:45;48.43;;;26.13;;
38901;SDS011;24661;53.566;9.910;2023-02-15T12:57:20;43.77;;;26.73;;
38901;SDS011;24661;53.566;9.910;2023-02-15T12:59:50;40.30;;;25.30;;
38901;SDS011;24661;53.566;9.910;2023-02-15T13:07:48;41.17;;;24.70;;
38901;SDS011;24661;53.566;9.910;2023-02-15T13:10:21;40.13;;;25.80;;
38901;SDS011;24661;53.566;9.910;2023-02-15T13:12:50;37.03;;;25.47;;
38901;SDS011;24661;53.566;9.910;2023-02-15T13:15:26;34.60;;;22.33;;
38901;SDS011;24661;53.566;9.910;2023-02-15T13:17:56;42.40;;;25.70;;
38901;SDS011;24661;53.566;9.910;2023-02-15T13:20:23;33.80;;;24.57;;
38901;SDS011;24661;53.566;9.910;2023-02-15T13:22:53;40.17;;;24.83;;
38901;SDS011;24661;53.566;9.910;2023-02-15T13:25:28;38.33;;;24.67;;
38901;SDS011;24661;53.566;9.910;2023-02-15T13:28:00;35.13;;;24.27;;
38901;SDS011;24661;53.566;9.910;2023-02-15T13:30:38;41.80;;;24.30;;
38901;SDS011;24661;53.566;9.910;2023-02-15T13:33:12;34.73;;;23.20;;
38901;SDS011;24661;53.566;9.910;2023-02-15T13:35:52;36.73;;;24.20;;
38901;SDS011;24661;53.566;9.910;2023-02-15T13:41:14;35.50;;;24.63;;
38901;SDS011;24661;53.566;9.910;2023-02-15T13:46:38;37.30;;;23.90;;
38901;SDS011;24661;53.566;9.910;2023-02-15T13:52:23;35.63;;;22.83;;
38901;SDS011;24661;53.566;9.910;2023-02-15T13:54:55;37.77;;;22.87;;
38901;SDS011;24661;53.566;9.910;2023-02-15T14:12:13;37.40;;;23.53;;
38901;SDS011;24661;53.566;9.910;2023-02-15T14:17:43;40.23;;;24.40;;
38901;SDS011;24661;53.566;9.910;2023-02-15T14:23:24;41.87;;;25.37;;
38901;SDS011;24661;53.566;9.910;2023-02-15T14:26:31;36.43;;;24.00;;
38901;SDS011;24661;53.566;9.910;2023-02-15T14:29:15;37.43;;;24.70;;
38901;SDS011;24661;53.566;9.910;2023-02-15T14:31:50;36.03;;;24.23;;
38901;SDS011;24661;53.566;9.910;2023-02-15T14:34:24;38.27;;;25.03;;
38901;SDS011;24661;53.566;9.910;2023-02-15T14:37:08;36.97;;;21.90;;
38901;SDS011;24661;53.566;9.910;2023-02-15T14:39:57;37.83;;;23.63;;
38901;SDS011;24661;53.566;9.910;2023-02-15T14:45:53;30.57;;;22.00;;
38901;SDS011;24661;53.566;9.910;2023-02-15T14:48:28;34.33;;;22.80;;
38901;SDS011;24661;53.566;9.910;2023-02-15T14:50:57;36.83;;;23.40;;
38901;SDS011;24661;53.566;9.910;2023-02-15T14:58:36;34.20;;;21.83;;
38901;SDS011;24661;53.566;9.910;2023-02-15T15:01:06;32.37;;;21.33;;
38901;SDS011;24661;53.566;9.910;2023-02-15T15:03:33;34.83;;;22.43;;
38901;SDS011;24661;53.566;9.910;2023-02-15T15:06:01;35.90;;;22.53;;
38901;SDS011;24661;53.566;9.910;2023-02-15T15:08:32;34.47;;;22.53;;
38901;SDS011;24661;53.566;9.910;2023-02-15T15:13:58;32.40;;;19.97;;
38901;SDS011;24661;53.566;9.910;2023-02-15T15:16:28;32.73;;;21.10;;
38901;SDS011;24661;53.566;9.910;2023-02-15T15:19:00;37.73;;;22.03;;
38901;SDS011;24661;53.566;9.910;2023-02-15T15:38:16;30.87;;;20.63;;
38901;SDS011;24661;53.566;9.910;2023-02-15T15:47:08;32.40;;;22.20;;
38901;SDS011;24661;53.566;9.910;2023-02-15T15:50:21;37.50;;;21.10;;
38901;SDS011;24661;53.566;9.910;2023-02-15T15:52:51;31.10;;;21.30;;
38901;SDS011;24661;53.566;9.910;2023-02-15T15:55:20;32.97;;;20.60;;
38901;SDS011;24661;53.566;9.910;2023-02-15T15:57:55;36.47;;;21.43;;
38901;SDS011;24661;53.566;9.910;2023-02-15T16:02:58;37.73;;;22.63;;
38901;SDS011;24661;53.566;9.910;2023-02-15T16:05:23;35.53;;;21.83;;
38901;SDS011;24661;53.566;9.910;2023-02-15T16:07:51;33.17;;;21.47;;
38901;SDS011;24661;53.566;9.910;2023-02-15T16:10:24;35.07;;;23.63;;
38901;SDS011;24661;53.566;9.910;2023-02-15T16:12:52;30.97;;;21.73;;
38901;SDS011;24661;53.566;9.910;2023-02-15T16:15:22;38.10;;;21.90;;
38901;SDS011;24661;53.566;9.910;2023-02-15T16:18:11;30.97;;;20.40;;
38901;SDS011;24661;53.566;9.910;2023-02-15T16:20:41;37.63;;;22.20;;
38901;SDS011;24661;53.566;9.910;2023-02-15T16:28:30;31.70;;;21.83;;
38901;SDS011;24661;53.566;9.910;2023-02-15T16:31:13;38.10;;;22.27;;
38901;SDS011;24661;53.566;9.910;2023-02-15T16:33:41;34.10;;;20.93;;
38901;SDS011;24661;53.566;9.910;2023-02-15T16:36:12;32.17;;;21.47;;
38901;SDS011;24661;53.566;9.910;2023-02-15T16:43:59;30.77;;;21.10;;
38901;SDS011;24661;53.566;9.910;2023-02-15T16:46:33;33.23;;;21.67;;
38901;SDS011;24661;53.566;9.910;2023-02-15T16:49:03;30.33;;;20.33;;
38901;SDS011;24661;53.566;9.910;2023-02-15T16:51:39;35.57;;;21.13;;
38901;SDS011;24661;53.566;9.910;2023-02-15T16:54:08;34.70;;;22.00;;
38901;SDS011;24661;53.566;9.910;2023-02-15T16:56:44;33.73;;;21.93;;
38901;SDS011;24661;53.566;9.910;2023-02-15T16:59:26;32.03;;;21.10;;
38901;SDS011;24661;53.566;9.910;2023-02-15T17:01:54;34.23;;;21.23;;
38901;SDS011;24661;53.566;9.910;2023-02-15T17:09:58;35.27;;;22.60;;
38901;SDS011;24661;53.566;9.910;2023-02-15T17:12:47;35.33;;;22.73;;
38901;SDS011;24661;53.566;9.910;2023-02-15T17:17:52;33.53;;;21.93;;
38901;SDS011;24661;53.566;9.910;2023-02-15T17:20:21;39.73;;;22.87;;
38901;SDS011;24661;53.566;9.910;2023-02-15T17:22:49;36.13;;;23.23;;
38901;SDS011;24661;53.566;9.910;2023-02-15T17:25:24;34.10;;;21.87;;
38901;SDS011;24661;53.566;9.910;2023-02-15T17:27:57;34.53;;;21.10;;
38901;SDS011;24661;53.566;9.910;2023-02-15T17:30:25;36.07;;;21.70;;
38901;SDS011;24661;53.566;9.910;2023-02-15T17:32:58;36.80;;;23.30;;
38901;SDS011;24661;53.566;9.910;2023-02-15T17:35:30;38.07;;;22.73;;
38901;SDS011;24661;53.566;9.910;2023-02-15T17:38:01;34.77;;;21.83;;
38901;SDS011;24661;53.566;9.910;2023-02-15T17:40:43;37.63;;;23.27;;
38901;SDS011;24661;53.566;9.910;2023-02-15T17:43:10;37.43;;;23.83;;
38901;SDS011;24661;53.566;9.910;2023-02-15T17:45:36;38.77;;;23.60;;
38901;SDS011;24661;53.566;9.910;2023-02-15T17:51:00;37.83;;;22.73;;
38901;SDS011;24661;53.566;9.910;2023-02-15T17:53:31;32.57;;;21.53;;
38901;SDS011;24661;53.566;9.910;2023-02-15T17:55:58;38.50;;;24.10;;
38901;SDS011;24661;53.566;9.910;2023-02-15T17:58:23;38.97;;;23.90;;
38901;SDS011;24661;53.566;9.910;2023-02-15T18:00:54;39.07;;;24.43;;
38901;SDS011;24661;53.566;9.910;2023-02-15T18:03:45;35.67;;;23.13;;